createdAt,value
2023-08-14T00:00:39.659Z,9.50
2023-08-14T00:01:42.840Z,8.70
2023-08-14T00:02:45.958Z,9.50
2023-08-14T00:03:49.244Z,9.82
2023-08-14T00:04:52.304Z,10.10
2023-08-14T00:05:56.290Z,8.73
2023-08-14T00:06:59.350Z,9.80
2023-08-14T00:08:02.555Z,10.70
2023-08-14T00:09:05.327Z,8.30
2023-08-14T00:10:08.638Z,9.82
2023-08-14T00:11:11.501Z,9.70
2023-08-14T00:12:15.802Z,10.30
2023-08-14T00:13:19.617Z,9.10
2023-08-14T00:14:22.357Z,10.20
2023-08-14T00:15:25.713Z,11.55
2023-08-14T00:16:28.504Z,10.10
2023-08-14T00:17:31.284Z,9.36
2023-08-14T00:18:34.071Z,10.18
2023-08-14T00:19:38.502Z,8.70
2023-08-14T00:20:41.842Z,10.40
2023-08-14T00:21:44.636Z,10.20
2023-08-14T00:22:47.596Z,9.10
2023-08-14T00:23:50.572Z,11.40
2023-08-14T00:24:53.314Z,9.45
2023-08-14T00:25:56.149Z,9.45
2023-08-14T00:26:59.760Z,11.20
2023-08-14T00:28:03.729Z,10.10
2023-08-14T00:29:06.545Z,10.30
2023-08-14T00:30:11.437Z,9.70
2023-08-14T00:31:15.754Z,10.60
2023-08-14T00:32:19.140Z,10.90
2023-08-14T00:33:22.440Z,11.40
2023-08-14T00:34:25.226Z,8.70
2023-08-14T00:35:28.219Z,10.82
2023-08-14T00:36:31.284Z,8.50
2023-08-14T00:37:45.588Z,9.90
2023-08-14T00:38:48.339Z,10.40
2023-08-14T00:39:51.398Z,10.60
2023-08-14T00:40:54.485Z,9.20
2023-08-14T00:41:57.363Z,9.73
2023-08-14T00:43:00.399Z,10.80
2023-08-14T00:44:03.732Z,11.50
2023-08-14T00:45:07.668Z,10.50
2023-08-14T00:46:11.017Z,10.90
2023-08-14T00:47:14.500Z,9.73
2023-08-14T00:48:17.178Z,10.00
2023-08-14T00:49:19.870Z,9.70
2023-08-14T00:50:22.957Z,11.00
2023-08-14T00:51:25.816Z,10.70
2023-08-14T00:52:30.432Z,10.45
2023-08-14T00:53:33.773Z,6.70
2023-08-14T00:54:36.694Z,11.20
2023-08-14T00:55:39.624Z,10.64
2023-08-14T00:56:42.605Z,10.20
2023-08-14T00:57:45.862Z,11.00
2023-08-14T00:58:48.935Z,13.10
2023-08-14T00:59:51.820Z,11.50
2023-08-14T01:00:55.254Z,9.90
2023-08-14T01:01:58.509Z,9.20
2023-08-14T01:03:02.315Z,10.30
2023-08-14T01:04:07.030Z,11.50
2023-08-14T01:05:09.776Z,10.50
2023-08-14T01:06:13.159Z,11.60
2023-08-14T01:07:16.859Z,11.10
2023-08-14T01:08:19.699Z,7.10
2023-08-14T01:09:22.312Z,6.90
2023-08-14T01:10:27.878Z,11.82
2023-08-14T01:13:14.117Z,10.60
2023-08-14T01:14:29.048Z,11.90
2023-08-14T01:15:38.809Z,12.20
2023-08-14T01:16:44.661Z,11.40
2023-08-14T01:17:50.525Z,9.80
2023-08-14T01:18:53.834Z,11.60
2023-08-14T01:19:57.064Z,9.50
2023-08-14T01:21:03.575Z,10.20
2023-08-14T01:22:11.719Z,11.30
2023-08-14T01:23:34.378Z,10.60
2023-08-14T01:24:47.368Z,11.10
2023-08-14T01:25:51.370Z,11.00
2023-08-14T01:26:54.388Z,11.90
2023-08-14T01:27:57.239Z,11.00
2023-08-14T01:29:03.611Z,10.82
2023-08-14T01:30:08.445Z,10.70
2023-08-14T01:31:11.481Z,12.00
2023-08-14T01:32:14.609Z,10.20
2023-08-14T01:33:17.505Z,11.30
2023-08-14T01:34:23.163Z,12.20
2023-08-14T01:35:27.168Z,13.70
2023-08-14T01:36:36.987Z,13.40
2023-08-14T01:38:00.125Z,16.30
2023-08-14T01:39:07.147Z,13.90
2023-08-14T01:40:15.333Z,15.20
2023-08-14T01:42:41.947Z,12.90
2023-08-14T01:43:47.913Z,13.64
2023-08-14T01:44:52.931Z,13.50
2023-08-14T01:45:56.320Z,13.90
2023-08-14T01:46:59.393Z,14.00
2023-08-14T01:48:03.876Z,14.30
2023-08-14T01:49:06.869Z,11.60
2023-08-14T01:50:11.326Z,13.30
2023-08-14T01:51:14.374Z,10.20
2023-08-14T01:52:18.489Z,12.90
2023-08-14T01:53:21.976Z,12.80
2023-08-14T01:54:25.779Z,11.80
2023-08-14T01:55:28.601Z,13.60
2023-08-14T01:56:31.972Z,12.60
2023-08-14T01:57:35.615Z,14.45
2023-08-14T01:58:39.846Z,15.30
2023-08-14T01:59:44.631Z,13.40
2023-08-14T02:00:48.204Z,13.20
2023-08-14T02:01:50.987Z,13.91
2023-08-14T02:02:54.065Z,13.20
2023-08-14T02:03:56.970Z,12.70
2023-08-14T02:05:01.552Z,10.90
2023-08-14T02:06:04.505Z,11.80
2023-08-14T02:07:11.045Z,12.80
2023-08-14T02:08:14.058Z,11.80
2023-08-14T02:09:16.843Z,12.27
2023-08-14T02:10:20.616Z,12.00
2023-08-14T02:11:23.377Z,12.50
2023-08-14T02:12:26.359Z,13.70
2023-08-14T02:13:29.473Z,12.70
2023-08-14T02:14:32.516Z,10.80
2023-08-14T02:15:35.849Z,14.30
2023-08-14T02:16:40.991Z,12.40
2023-08-14T02:17:44.128Z,12.10
2023-08-14T02:18:47.614Z,11.30
2023-08-14T02:19:50.570Z,12.18
2023-08-14T02:20:54.325Z,10.45
2023-08-14T02:21:58.946Z,11.00
2023-08-14T02:23:01.781Z,11.90
2023-08-14T02:24:07.409Z,11.90
2023-08-14T02:25:10.827Z,9.90
2023-08-14T02:26:14.724Z,11.60
2023-08-14T02:27:19.133Z,13.00
2023-08-14T02:28:22.114Z,11.73
2023-08-14T02:29:25.631Z,11.60
2023-08-14T02:30:28.672Z,10.60
2023-08-14T02:31:32.003Z,12.73
2023-08-14T02:32:36.419Z,13.00
2023-08-14T02:33:39.408Z,11.50
2023-08-14T02:34:49.079Z,11.55
2023-08-14T02:35:51.945Z,10.90
2023-08-14T02:36:55.249Z,11.80
2023-08-14T02:37:58.747Z,11.20
2023-08-14T02:39:01.773Z,12.50
2023-08-14T02:40:07.815Z,11.60
2023-08-14T02:41:12.881Z,12.60
2023-08-14T02:42:17.140Z,10.80
2023-08-14T02:43:20.795Z,12.00
2023-08-14T02:44:23.823Z,10.60
2023-08-14T02:45:27.584Z,10.70
2023-08-14T02:46:30.949Z,11.70
2023-08-14T02:47:34.618Z,10.60
2023-08-14T02:48:37.534Z,10.70
2023-08-14T02:49:40.592Z,11.00
2023-08-14T02:50:44.398Z,9.50
2023-08-14T02:51:47.285Z,9.60
2023-08-14T02:52:50.531Z,10.60
2023-08-14T02:53:53.295Z,11.00
2023-08-14T02:54:56.159Z,11.90
2023-08-14T02:55:59.916Z,9.00
2023-08-14T02:57:03.061Z,10.20
2023-08-14T02:58:06.574Z,11.00
2023-08-14T02:59:09.537Z,12.10
2023-08-14T03:00:13.679Z,11.60
2023-08-14T03:01:17.795Z,12.10
2023-08-14T03:02:21.058Z,8.60
2023-08-14T03:03:24.608Z,11.80
2023-08-14T03:04:27.597Z,10.70
2023-08-14T03:05:30.651Z,11.00
2023-08-14T03:06:34.007Z,11.60
2023-08-14T03:07:36.913Z,9.70
2023-08-14T03:08:39.721Z,10.10
2023-08-14T03:09:43.515Z,10.82
2023-08-14T03:10:46.975Z,10.80
2023-08-14T03:11:51.000Z,11.60
2023-08-14T03:12:54.215Z,9.70
2023-08-14T03:13:56.943Z,10.30
2023-08-14T03:14:59.734Z,12.00
2023-08-14T03:16:02.714Z,10.90
2023-08-14T03:17:06.148Z,12.30
2023-08-14T03:18:08.902Z,12.10
2023-08-14T03:19:11.663Z,10.36
2023-08-14T03:20:15.111Z,8.70
2023-08-14T03:21:17.990Z,10.90
2023-08-14T03:22:20.767Z,12.20
2023-08-14T03:23:23.642Z,10.40
2023-08-14T03:24:26.776Z,10.91
2023-08-14T03:25:30.173Z,12.00
2023-08-14T03:26:33.757Z,11.50
2023-08-14T03:27:37.588Z,11.70
2023-08-14T03:28:41.662Z,10.10
2023-08-14T03:29:46.252Z,9.80
2023-08-14T03:30:49.458Z,10.91
2023-08-14T03:31:54.094Z,11.50
2023-08-14T03:32:58.305Z,10.40
2023-08-14T03:34:01.725Z,10.80
2023-08-14T03:35:05.519Z,12.10
2023-08-14T03:36:09.056Z,11.80
2023-08-14T03:37:12.801Z,10.90
2023-08-14T03:38:16.595Z,10.30
2023-08-14T03:39:19.944Z,10.40
2023-08-14T03:40:23.050Z,9.80
2023-08-14T03:41:27.218Z,11.80
2023-08-14T03:42:31.292Z,13.20
2023-08-14T03:43:34.488Z,11.18
2023-08-14T03:44:38.107Z,10.70
2023-08-14T03:45:40.966Z,11.27
2023-08-14T03:46:44.474Z,10.50
2023-08-14T03:47:48.053Z,9.80
2023-08-14T03:48:52.888Z,11.00
2023-08-14T03:49:55.686Z,10.90
2023-08-14T03:50:59.650Z,10.20
2023-08-14T03:52:03.262Z,10.60
2023-08-14T03:53:06.327Z,9.80
2023-08-14T03:54:09.848Z,13.20
2023-08-14T03:55:13.071Z,9.80
2023-08-14T03:56:16.251Z,11.30
2023-08-14T03:57:19.152Z,10.30
2023-08-14T03:58:21.855Z,11.18
2023-08-14T03:59:26.230Z,9.70
2023-08-14T04:00:29.468Z,10.40
2023-08-14T04:01:33.159Z,10.10
2023-08-14T04:02:37.382Z,11.10
2023-08-14T04:03:40.536Z,11.00
2023-08-14T04:04:43.473Z,10.40
2023-08-14T04:05:48.160Z,10.40
2023-08-14T04:06:51.555Z,10.50
2023-08-14T04:07:55.231Z,8.30
2023-08-14T04:08:58.273Z,11.60
2023-08-14T04:10:01.637Z,9.80
2023-08-14T04:11:05.624Z,11.50
2023-08-14T04:12:10.013Z,9.30
2023-08-14T04:13:14.145Z,10.40
2023-08-14T04:14:18.440Z,11.70
2023-08-14T04:15:22.378Z,10.70
2023-08-14T04:17:39.168Z,11.00
2023-08-14T04:18:42.364Z,10.50
2023-08-14T04:19:45.346Z,9.00
2023-08-14T04:20:48.294Z,10.80
2023-08-14T04:21:52.115Z,9.18
2023-08-14T04:22:55.165Z,9.60
2023-08-14T04:23:58.718Z,12.20
2023-08-14T04:25:01.657Z,10.00
2023-08-14T04:26:04.813Z,10.10
2023-08-14T04:27:08.050Z,10.50
2023-08-14T04:28:11.114Z,8.70
2023-08-14T04:29:16.013Z,11.30
2023-08-14T04:30:18.948Z,9.10
2023-08-14T04:31:22.892Z,8.30
2023-08-14T04:33:39.773Z,7.80
2023-08-14T04:34:42.982Z,9.30
2023-08-14T04:35:46.555Z,7.30
2023-08-14T04:36:50.387Z,9.60
2023-08-14T04:37:53.950Z,8.50
2023-08-14T04:38:56.878Z,9.20
2023-08-14T04:40:00.505Z,9.20
2023-08-14T04:41:03.464Z,8.82
2023-08-14T04:42:07.089Z,9.00
2023-08-14T04:43:10.537Z,9.30
2023-08-14T04:45:46.836Z,9.60
2023-08-14T04:48:04.615Z,8.10
2023-08-14T04:49:08.897Z,9.70
2023-08-14T04:50:14.378Z,9.50
2023-08-14T04:51:17.535Z,8.70
2023-08-14T04:52:22.664Z,10.50
2023-08-14T04:53:27.185Z,8.70
2023-08-14T04:55:43.649Z,8.60
2023-08-14T04:56:47.081Z,9.10
2023-08-14T04:57:50.328Z,8.90
2023-08-14T04:58:53.283Z,10.20
2023-08-14T04:59:56.937Z,8.70
2023-08-14T05:00:59.883Z,9.50
2023-08-14T05:02:04.946Z,7.80
2023-08-14T05:03:08.864Z,8.50
2023-08-14T05:04:11.655Z,5.90
2023-08-14T05:05:15.176Z,10.00
2023-08-14T05:06:20.281Z,9.30
2023-08-14T05:07:26.224Z,10.10
2023-08-14T05:08:29.491Z,8.40
2023-08-14T05:09:32.618Z,8.90
2023-08-14T05:10:38.150Z,9.80
2023-08-14T05:11:41.462Z,8.80
2023-08-14T05:12:44.426Z,9.00
2023-08-14T05:13:48.389Z,6.60
2023-08-14T05:14:54.835Z,6.78
2023-08-14T05:16:07.820Z,8.30
2023-08-14T05:17:04.560Z,9.20
2023-08-14T05:18:08.350Z,8.70
2023-08-14T05:19:11.692Z,7.50
2023-08-14T05:20:15.381Z,7.60
2023-08-14T05:21:18.208Z,7.50
2023-08-14T05:22:21.423Z,9.82
2023-08-14T05:23:26.568Z,8.30
2023-08-14T05:24:30.097Z,8.90
2023-08-14T05:25:32.965Z,8.20
2023-08-14T05:26:36.138Z,8.10
2023-08-14T05:27:39.607Z,8.10
2023-08-14T05:28:42.614Z,8.10
2023-08-14T05:29:47.314Z,8.10
2023-08-14T05:30:50.149Z,7.30
2023-08-14T05:31:52.723Z,8.80
2023-08-14T05:32:56.267Z,9.00
2023-08-14T05:33:58.996Z,8.70
2023-08-14T05:35:01.701Z,8.20
2023-08-14T05:36:04.936Z,7.40
2023-08-14T05:38:22.293Z,7.70
2023-08-14T05:39:27.325Z,10.40
2023-08-14T05:40:30.276Z,8.50
2023-08-14T05:41:33.996Z,8.18
2023-08-14T05:42:38.356Z,8.20
2023-08-14T05:43:42.680Z,9.20
2023-08-14T05:44:47.334Z,9.40
2023-08-14T05:45:50.446Z,8.70
2023-08-14T05:46:53.265Z,8.27
2023-08-14T05:47:57.012Z,8.55
2023-08-14T05:49:00.469Z,8.50
2023-08-14T05:50:04.286Z,8.10
2023-08-14T05:51:07.090Z,7.90
2023-08-14T05:52:09.754Z,8.73
2023-08-14T05:53:12.715Z,8.82
2023-08-14T05:54:15.502Z,8.82
2023-08-14T05:55:18.587Z,9.10
2023-08-14T05:56:21.466Z,8.00
2023-08-14T05:57:24.542Z,8.64
2023-08-14T05:58:28.070Z,8.60
2023-08-14T05:59:31.053Z,8.10
2023-08-14T06:00:35.116Z,8.30
2023-08-14T06:01:39.041Z,8.20
2023-08-14T06:02:42.020Z,8.40
2023-08-14T06:03:45.950Z,5.80
2023-08-14T06:04:50.342Z,7.90
2023-08-14T06:05:54.081Z,8.40
2023-08-14T06:06:57.081Z,6.80
2023-08-14T06:08:01.383Z,8.20
2023-08-14T06:09:04.768Z,9.00
2023-08-14T06:10:10.258Z,8.90
2023-08-14T06:11:13.592Z,9.00
2023-08-14T06:12:18.510Z,8.40
2023-08-14T06:13:21.915Z,10.40
2023-08-14T06:14:24.891Z,10.30
2023-08-14T06:15:28.905Z,9.27
2023-08-14T06:16:32.060Z,10.50
2023-08-14T06:17:35.134Z,8.70
2023-08-14T06:18:37.764Z,9.00
2023-08-14T06:19:42.770Z,9.30
2023-08-14T06:20:46.109Z,8.70
2023-08-14T06:21:49.293Z,9.10
2023-08-14T06:22:52.279Z,8.60
2023-08-14T06:23:55.239Z,8.40
2023-08-14T06:24:59.488Z,9.27
2023-08-14T06:26:03.768Z,8.50
2023-08-14T06:27:07.350Z,8.80
2023-08-14T06:28:13.818Z,8.80
2023-08-14T06:29:18.495Z,4.80
2023-08-14T06:30:23.716Z,7.10
2023-08-14T06:31:26.707Z,9.80
2023-08-14T06:32:29.654Z,4.91
2023-08-14T06:33:32.498Z,7.70
2023-08-14T06:34:35.995Z,9.27
2023-08-14T06:35:39.352Z,9.50
2023-08-14T06:36:43.125Z,7.40
2023-08-14T06:37:46.901Z,8.70
2023-08-14T06:38:50.053Z,8.20
2023-08-14T06:39:53.777Z,10.30
2023-08-14T06:40:56.839Z,10.30
2023-08-14T06:42:01.579Z,9.55
2023-08-14T06:43:06.775Z,8.40
2023-08-14T06:44:10.450Z,8.60
2023-08-14T06:45:14.126Z,6.30
2023-08-14T06:46:17.644Z,7.80
2023-08-14T06:47:21.672Z,7.20
2023-08-14T06:48:24.920Z,8.90
2023-08-14T06:49:29.108Z,8.80
2023-08-14T06:50:31.968Z,7.90
2023-08-14T06:51:35.048Z,9.20
2023-08-14T06:52:38.043Z,9.70
2023-08-14T06:53:42.797Z,8.80
2023-08-14T06:54:45.732Z,8.30
2023-08-14T06:55:49.254Z,8.60
2023-08-14T06:56:52.397Z,8.60
2023-08-14T06:57:57.281Z,6.90
2023-08-14T06:59:00.194Z,3.10
2023-08-14T07:01:22.182Z,8.40
2023-08-14T07:02:26.021Z,8.50
2023-08-14T07:03:29.711Z,9.00
2023-08-14T07:04:32.620Z,9.20
2023-08-14T07:05:35.770Z,8.55
2023-08-14T07:06:40.687Z,7.00
2023-08-14T07:07:44.202Z,8.50
2023-08-14T07:08:47.407Z,7.80
2023-08-14T07:09:50.100Z,7.40
2023-08-14T07:10:53.127Z,8.60
2023-08-14T07:11:55.745Z,7.40
2023-08-14T07:12:58.665Z,8.45
2023-08-14T07:14:01.263Z,7.60
2023-08-14T07:15:07.264Z,8.36
2023-08-14T07:16:10.231Z,7.90
2023-08-14T07:17:12.985Z,7.36
2023-08-14T07:18:18.596Z,9.36
2023-08-14T07:19:22.900Z,9.90
2023-08-14T07:20:27.131Z,8.00
2023-08-14T07:21:31.304Z,8.30
2023-08-14T07:22:34.253Z,11.10
2023-08-14T07:23:37.135Z,12.00
2023-08-14T07:24:41.150Z,19.30
2023-08-14T07:25:44.638Z,11.80
2023-08-14T07:26:48.383Z,16.80
2023-08-14T07:27:51.041Z,13.50
2023-08-14T07:28:53.927Z,13.55
2023-08-14T07:29:56.786Z,12.20
2023-08-14T07:31:00.096Z,13.00
2023-08-14T07:32:04.498Z,12.30
2023-08-14T07:34:24.444Z,13.40
2023-08-14T07:35:27.262Z,13.91
2023-08-14T07:36:30.765Z,13.60
2023-08-14T07:37:33.474Z,14.20
2023-08-14T07:38:36.354Z,16.91
2023-08-14T07:39:39.029Z,11.27
2023-08-14T07:40:43.467Z,11.18
2023-08-14T07:41:46.896Z,13.30
2023-08-14T07:42:49.545Z,12.60
2023-08-14T07:43:52.417Z,14.82
2023-08-14T07:44:56.247Z,12.40
2023-08-14T07:46:00.465Z,12.80
2023-08-14T07:47:03.711Z,9.50
2023-08-14T07:48:06.593Z,13.80
2023-08-14T07:49:09.416Z,10.73
2023-08-14T07:50:12.808Z,11.80
2023-08-14T07:51:15.865Z,13.10
2023-08-14T07:52:20.011Z,11.80
2023-08-14T07:53:23.021Z,12.00
2023-08-14T07:54:25.795Z,12.18
2023-08-14T07:55:29.591Z,11.09
2023-08-14T07:56:32.434Z,10.10
2023-08-14T07:57:35.633Z,9.82
2023-08-14T07:58:40.259Z,10.10
2023-08-14T07:59:43.005Z,10.80
2023-08-14T08:00:46.275Z,10.45
2023-08-14T08:01:50.430Z,11.80
2023-08-14T08:02:54.366Z,10.40
2023-08-14T08:03:57.971Z,11.60
2023-08-14T08:05:01.497Z,11.20
2023-08-14T08:06:05.665Z,9.50
2023-08-14T08:07:11.208Z,9.60
2023-08-14T08:08:14.072Z,10.30
2023-08-14T08:09:19.218Z,9.60
2023-08-14T08:10:21.919Z,10.60
2023-08-14T08:11:24.612Z,10.20
2023-08-14T08:12:27.184Z,11.40
2023-08-14T08:13:29.885Z,9.20
2023-08-14T08:14:33.552Z,10.45
2023-08-14T08:15:37.168Z,9.60
2023-08-14T08:16:40.344Z,10.30
2023-08-14T08:17:43.341Z,10.60
2023-08-14T08:18:46.297Z,9.82
2023-08-14T08:19:50.252Z,9.00
2023-08-14T08:20:54.326Z,8.90
2023-08-14T08:21:57.686Z,11.20
2023-08-14T08:23:01.246Z,10.00
2023-08-14T08:24:06.562Z,9.82
2023-08-14T08:25:10.954Z,10.40
2023-08-14T08:26:16.341Z,10.20
2023-08-14T08:27:18.858Z,9.00
2023-08-14T08:28:21.689Z,9.27
2023-08-14T08:29:25.021Z,8.80
2023-08-14T08:30:27.900Z,9.30
2023-08-14T08:31:31.264Z,7.00
2023-08-14T08:32:35.339Z,9.70
2023-08-14T08:33:38.308Z,10.10
2023-08-14T08:34:41.188Z,9.55
2023-08-14T08:35:44.895Z,10.80
2023-08-14T08:36:47.961Z,8.90
2023-08-14T08:37:51.379Z,9.73
2023-08-14T08:38:53.949Z,9.10
2023-08-14T08:39:56.935Z,9.50
2023-08-14T08:41:02.265Z,9.70
2023-08-14T08:42:06.331Z,9.60
2023-08-14T08:43:09.547Z,10.80
2023-08-14T08:44:35.459Z,10.80
2023-08-14T08:45:37.958Z,9.50
2023-08-14T08:46:49.671Z,8.90
2023-08-14T08:47:54.021Z,9.30
2023-08-14T08:48:56.800Z,9.60
2023-08-14T08:50:00.241Z,8.30
2023-08-14T08:51:03.633Z,9.70
2023-08-14T08:52:07.715Z,4.60
2023-08-14T08:53:11.058Z,7.90
2023-08-14T08:55:27.884Z,9.60
2023-08-14T08:56:30.860Z,7.55
2023-08-14T08:57:37.415Z,8.50
2023-08-14T08:58:38.240Z,6.70
2023-08-14T08:59:42.065Z,10.10
2023-08-14T09:00:45.030Z,9.50
2023-08-14T09:01:48.965Z,8.90
2023-08-14T09:02:52.204Z,9.70
2023-08-14T09:03:55.077Z,8.40
2023-08-14T09:04:58.554Z,8.60
2023-08-14T09:06:01.789Z,8.40
2023-08-14T09:07:06.349Z,8.50
2023-08-14T09:08:09.352Z,8.50
2023-08-14T09:09:12.926Z,8.80
2023-08-14T09:10:16.738Z,8.60
2023-08-14T09:11:19.960Z,8.90
2023-08-14T09:12:23.747Z,9.60
2023-08-14T09:13:32.288Z,9.60
2023-08-14T09:14:31.032Z,8.50
2023-08-14T09:15:34.480Z,9.82
2023-08-14T09:16:37.471Z,8.90
2023-08-14T09:17:40.265Z,9.09
2023-08-14T09:18:45.096Z,7.50
2023-08-14T09:19:48.655Z,5.60
2023-08-14T09:20:51.671Z,10.00
2023-08-14T09:21:55.475Z,8.00
2023-08-14T09:23:00.062Z,4.30
2023-08-14T09:24:03.631Z,9.20
2023-08-14T09:25:07.227Z,9.30
2023-08-14T09:26:12.491Z,8.30
2023-08-14T09:27:16.456Z,8.60
2023-08-14T09:28:19.709Z,9.00
2023-08-14T09:30:46.831Z,9.40
2023-08-14T09:31:49.506Z,9.00
2023-08-14T09:32:52.352Z,9.80
2023-08-14T09:33:57.444Z,7.30
2023-08-14T09:35:02.473Z,9.20
2023-08-14T09:36:05.945Z,9.40
2023-08-14T09:37:08.727Z,8.20
2023-08-14T09:38:13.831Z,8.18
2023-08-14T09:39:17.133Z,7.50
2023-08-14T09:40:21.095Z,8.40
2023-08-14T09:41:25.532Z,8.40
2023-08-14T09:42:29.365Z,7.00
2023-08-14T09:43:32.565Z,7.80
2023-08-14T09:44:37.268Z,8.20
2023-08-14T09:45:40.157Z,8.10
2023-08-14T09:46:43.195Z,9.30
2023-08-14T09:47:49.812Z,8.18
2023-08-14T09:48:52.488Z,5.80
2023-08-14T09:49:55.609Z,8.80
2023-08-14T09:50:58.396Z,8.30
2023-08-14T09:52:01.382Z,8.64
2023-08-14T09:53:05.275Z,6.60
2023-08-14T09:54:09.035Z,8.20
2023-08-14T09:55:14.031Z,8.50
2023-08-14T09:56:20.831Z,9.30
2023-08-14T09:57:27.540Z,7.20
2023-08-14T09:58:29.792Z,8.70
2023-08-14T10:00:46.070Z,9.10
2023-08-14T10:01:50.320Z,9.00
2023-08-14T10:02:53.938Z,7.50
2023-08-14T10:03:57.453Z,7.90
2023-08-14T10:05:01.728Z,6.50
2023-08-14T10:06:04.933Z,8.80
2023-08-14T10:07:09.009Z,8.90
2023-08-14T10:08:11.842Z,8.00
2023-08-14T10:09:15.247Z,8.73
2023-08-14T10:10:18.310Z,7.40
2023-08-14T10:11:22.898Z,8.27
2023-08-14T10:12:31.193Z,9.50
2023-08-14T10:13:37.605Z,8.20
2023-08-14T10:14:42.000Z,8.60
2023-08-14T10:15:47.246Z,8.30
2023-08-14T10:16:50.157Z,7.90
2023-08-14T10:17:59.926Z,7.70
2023-08-14T10:20:18.599Z,9.30
2023-08-14T10:21:22.633Z,8.10
2023-08-14T10:22:25.355Z,7.30
2023-08-14T10:25:52.604Z,8.10
2023-08-14T10:26:56.565Z,8.70
2023-08-14T10:27:59.360Z,8.90
2023-08-14T10:29:02.236Z,8.90
2023-08-14T10:30:07.029Z,8.00
2023-08-14T10:31:11.278Z,8.80
2023-08-14T10:32:14.291Z,7.40
2023-08-14T10:33:20.167Z,8.80
2023-08-14T10:35:52.820Z,8.80
2023-08-14T10:36:56.055Z,7.40
2023-08-14T10:38:08.810Z,9.30
2023-08-14T10:39:09.207Z,8.40
2023-08-14T10:41:33.128Z,8.00
2023-08-14T10:42:35.809Z,9.40
2023-08-14T10:43:38.322Z,9.10
2023-08-14T10:44:43.584Z,9.20
2023-08-14T10:45:47.358Z,8.80
2023-08-14T10:46:50.319Z,9.10
2023-08-14T10:47:56.687Z,8.27
2023-08-14T10:48:59.833Z,7.70
2023-08-14T10:50:04.548Z,7.73
2023-08-14T10:51:11.901Z,9.00
2023-08-14T10:52:21.476Z,8.90
2023-08-14T10:53:24.369Z,9.10
2023-08-14T10:54:27.734Z,9.82
2023-08-14T10:55:47.650Z,9.00
2023-08-14T10:58:02.416Z,10.70
2023-08-14T10:59:05.818Z,8.60
2023-08-14T11:00:26.542Z,10.50
2023-08-14T11:01:33.072Z,5.10
2023-08-14T11:04:05.263Z,9.10
2023-08-14T11:05:15.668Z,9.90
2023-08-14T11:06:27.225Z,9.40
2023-08-14T11:07:31.524Z,9.30
2023-08-14T11:08:52.147Z,10.20
2023-08-14T11:11:11.948Z,9.50
2023-08-14T11:12:15.827Z,9.50
2023-08-14T11:13:19.668Z,8.80
2023-08-14T11:14:23.327Z,8.80
2023-08-14T11:15:26.390Z,7.20
2023-08-14T11:16:29.261Z,9.00
2023-08-14T11:17:32.260Z,8.91
2023-08-14T11:18:36.544Z,9.40
2023-08-14T11:19:41.327Z,10.00
2023-08-14T11:20:47.020Z,9.60
2023-08-14T11:21:50.927Z,8.90
2023-08-14T11:22:54.173Z,8.80
2023-08-14T11:23:58.801Z,7.80
2023-08-14T11:25:01.743Z,9.64
2023-08-14T11:26:08.137Z,8.20
2023-08-14T11:27:11.846Z,8.80
2023-08-14T11:28:14.887Z,7.60
2023-08-14T11:29:18.099Z,8.90
2023-08-14T11:30:26.405Z,8.70
2023-08-14T11:31:34.381Z,8.60
2023-08-14T11:32:37.771Z,6.90
2023-08-14T11:33:41.175Z,9.70
2023-08-14T11:34:44.647Z,9.00
2023-08-14T11:35:48.369Z,8.70
2023-08-14T11:37:07.418Z,7.20
2023-08-14T11:38:08.870Z,8.00
2023-08-14T11:39:10.483Z,9.10
2023-08-14T11:40:16.609Z,9.10
2023-08-14T11:41:31.166Z,7.70
2023-08-14T11:42:25.834Z,8.70
2023-08-14T11:43:30.594Z,8.80
2023-08-14T11:44:34.485Z,8.00
2023-08-14T11:45:40.099Z,9.60
2023-08-14T11:46:43.482Z,9.10
2023-08-14T11:47:49.086Z,9.00
2023-08-14T11:48:54.157Z,9.50
2023-08-14T11:49:58.983Z,9.20
2023-08-14T11:51:04.735Z,9.30
2023-08-14T11:52:08.313Z,8.70
2023-08-14T11:53:12.175Z,8.50
2023-08-14T11:54:15.014Z,8.40
2023-08-14T11:56:32.565Z,8.70
2023-08-14T11:57:35.960Z,8.80
2023-08-14T11:58:42.182Z,8.60
2023-08-14T11:59:46.137Z,5.10
2023-08-14T12:00:51.968Z,8.60
2023-08-14T12:01:57.695Z,9.40
2023-08-14T12:03:01.045Z,6.60
2023-08-14T12:04:05.165Z,8.80
2023-08-14T12:05:09.486Z,8.00
2023-08-14T12:06:12.473Z,7.90
2023-08-14T12:07:22.066Z,8.18
2023-08-14T12:08:24.793Z,9.00
2023-08-14T12:09:29.399Z,8.10
2023-08-14T12:10:33.286Z,8.90
2023-08-14T12:11:36.629Z,9.00
2023-08-14T12:12:48.072Z,9.10
2023-08-14T12:15:08.261Z,8.70
2023-08-14T12:16:18.553Z,9.20
2023-08-14T12:17:21.114Z,8.20
2023-08-14T12:18:25.292Z,8.20
2023-08-14T12:19:30.157Z,8.60
2023-08-14T12:20:34.545Z,7.70
2023-08-14T12:21:37.403Z,9.60
2023-08-14T12:22:42.670Z,8.09
2023-08-14T12:24:59.649Z,8.10
2023-08-14T12:26:06.026Z,8.60
2023-08-14T12:27:19.679Z,9.40
2023-08-14T12:28:22.731Z,10.60
2023-08-14T12:29:25.742Z,8.60
2023-08-14T12:30:28.638Z,8.80
2023-08-14T12:31:33.706Z,6.20
2023-08-14T12:32:37.610Z,9.10
2023-08-14T12:34:56.760Z,9.30
2023-08-14T12:36:00.338Z,8.90
2023-08-14T12:38:19.606Z,9.40
2023-08-14T12:39:22.556Z,8.70
2023-08-14T12:40:27.788Z,8.60
2023-08-14T12:41:30.684Z,8.80
2023-08-14T12:42:35.110Z,8.80
2023-08-14T12:43:41.003Z,10.40
2023-08-14T12:44:44.655Z,8.80
2023-08-14T12:45:47.502Z,9.40
2023-08-14T12:46:53.076Z,8.70
2023-08-14T12:47:57.349Z,10.20
2023-08-14T12:49:00.316Z,9.64
2023-08-14T12:50:03.387Z,8.50
2023-08-14T12:53:19.210Z,8.30
2023-08-14T12:54:21.868Z,8.30
2023-08-14T12:55:25.242Z,8.10
2023-08-14T12:56:30.991Z,8.60
2023-08-14T12:57:34.035Z,9.60
2023-08-14T12:58:36.915Z,9.10
2023-08-14T12:59:39.864Z,8.60
2023-08-14T13:00:43.043Z,8.27
2023-08-14T13:01:47.582Z,7.40
2023-08-14T13:02:50.784Z,7.00
2023-08-14T13:03:56.802Z,8.20
2023-08-14T13:04:59.979Z,8.30
2023-08-14T13:06:03.796Z,5.40
2023-08-14T13:07:06.969Z,7.90
2023-08-14T13:08:10.259Z,7.70
2023-08-14T13:09:14.273Z,8.50
2023-08-14T13:10:17.485Z,7.50
2023-08-14T13:11:22.110Z,6.60
2023-08-14T13:12:25.547Z,7.90
2023-08-14T13:13:31.009Z,7.50
2023-08-14T13:14:33.740Z,7.80
2023-08-14T13:15:36.822Z,7.80
2023-08-14T13:16:40.442Z,8.30
2023-08-14T13:17:43.511Z,9.10
2023-08-14T13:18:46.434Z,7.70
2023-08-14T13:19:50.371Z,7.40
2023-08-14T13:20:54.491Z,8.20
2023-08-14T13:21:58.519Z,8.20
2023-08-14T13:23:01.215Z,8.20
2023-08-14T13:24:05.153Z,7.30
2023-08-14T13:25:09.619Z,7.80
2023-08-14T13:26:26.052Z,8.40
2023-08-14T13:27:18.344Z,7.30
2023-08-14T13:28:22.309Z,7.09
2023-08-14T13:30:28.640Z,7.73
2023-08-14T13:31:32.854Z,8.10
2023-08-14T13:32:35.902Z,8.50
2023-08-14T13:33:39.254Z,6.70
2023-08-14T13:34:41.891Z,6.60
2023-08-14T13:35:44.997Z,7.64
2023-08-14T13:36:48.401Z,7.40
2023-08-14T13:37:54.153Z,7.80
2023-08-14T13:38:58.385Z,6.30
2023-08-14T13:40:03.879Z,5.70
2023-08-14T13:41:06.750Z,6.10
2023-08-14T13:42:09.634Z,6.00
2023-08-14T13:43:14.518Z,6.64
2023-08-14T13:44:18.367Z,7.60
2023-08-14T13:45:22.197Z,7.90
2023-08-14T13:46:26.151Z,7.60
2023-08-14T13:47:36.598Z,8.10
2023-08-14T13:48:35.158Z,8.20
2023-08-14T13:49:40.292Z,9.00
2023-08-14T13:50:45.288Z,7.70
2023-08-14T13:53:04.330Z,7.30
2023-08-14T13:54:08.663Z,6.80
2023-08-14T13:55:11.469Z,5.00
2023-08-14T13:56:14.905Z,7.70
2023-08-14T13:57:17.850Z,6.60
2023-08-14T13:58:21.582Z,7.30
2023-08-14T13:59:24.324Z,6.50
2023-08-14T14:00:29.996Z,7.20
2023-08-14T14:01:33.411Z,7.20
2023-08-14T14:02:36.265Z,7.40
2023-08-14T14:03:42.068Z,6.90
2023-08-14T14:04:47.255Z,6.80
2023-08-14T14:05:51.063Z,6.30
2023-08-14T14:06:54.915Z,6.00
2023-08-14T14:07:58.490Z,7.70
2023-08-14T14:09:02.825Z,7.00
2023-08-14T14:10:07.142Z,6.20
2023-08-14T14:11:11.934Z,7.90
2023-08-14T14:12:16.787Z,6.50
2023-08-14T14:13:22.167Z,6.30
2023-08-14T14:14:25.684Z,5.60
2023-08-14T14:15:28.546Z,6.60
2023-08-14T14:16:52.890Z,6.50
2023-08-14T14:17:56.782Z,6.90
2023-08-14T14:18:59.722Z,6.40
2023-08-14T14:21:18.761Z,6.80
2023-08-14T14:22:23.796Z,6.90
2023-08-14T14:23:27.482Z,6.60
2023-08-14T14:24:33.212Z,6.60
2023-08-14T14:25:35.970Z,6.80
2023-08-14T14:26:38.880Z,7.20
2023-08-14T14:27:41.766Z,6.09
2023-08-14T14:28:44.374Z,6.00
2023-08-14T14:29:47.473Z,5.40
2023-08-14T14:30:53.231Z,5.10
2023-08-14T14:31:56.554Z,7.30
2023-08-14T14:33:01.658Z,6.10
2023-08-14T14:34:06.387Z,7.40
2023-08-14T14:35:09.471Z,6.70
2023-08-14T14:36:13.809Z,5.90
2023-08-14T14:37:16.880Z,7.45
2023-08-14T14:38:20.092Z,6.70
2023-08-14T14:39:23.940Z,6.20
2023-08-14T14:41:38.978Z,6.00
2023-08-14T14:42:43.204Z,6.30
2023-08-14T14:43:46.077Z,6.10